createdAt,value
2018-06-09T00:02:13.441Z,10.93
2018-06-09T00:04:43.237Z,10.13
2018-06-09T00:07:12.477Z,10.57
2018-06-09T00:09:42.602Z,11.30
2018-06-09T00:12:13.495Z,11.60
2018-06-09T00:14:42.740Z,10.80
2018-06-09T00:17:12.871Z,10.10
2018-06-09T00:19:42.254Z,11.87
2018-06-09T00:22:11.540Z,11.80
2018-06-09T00:24:40.444Z,12.03
2018-06-09T00:27:10.545Z,12.40
2018-06-09T00:29:40.608Z,10.70
2018-06-09T00:32:10.029Z,10.90
2018-06-09T00:34:39.248Z,10.43
2018-06-09T00:37:10.946Z,10.23
2018-06-09T00:39:40.035Z,10.50
2018-06-09T00:42:09.381Z,10.50
2018-06-09T00:44:38.624Z,11.20
2018-06-09T00:47:08.921Z,10.30
2018-06-09T00:49:40.175Z,10.00
2018-06-09T00:52:09.581Z,10.70
2018-06-09T00:54:39.116Z,10.60
2018-06-09T00:57:08.363Z,10.40
2018-06-09T00:59:37.605Z,9.90
2018-06-09T01:02:07.136Z,10.80
2018-06-09T01:04:36.467Z,10.53
2018-06-09T01:07:06.533Z,10.80
2018-06-09T01:09:35.774Z,9.90
2018-06-09T01:12:08.008Z,10.50
2018-06-09T01:14:37.886Z,11.43
2018-06-09T01:17:07.045Z,11.57
2018-06-09T01:19:36.570Z,10.60
2018-06-09T01:22:06.075Z,10.47
2018-06-09T01:24:36.361Z,11.57
2018-06-09T01:27:05.736Z,11.13
2018-06-09T01:29:35.352Z,11.17
2018-06-09T01:32:04.588Z,11.20
2018-06-09T01:34:33.956Z,11.23
2018-06-09T01:37:03.284Z,11.20
2018-06-09T01:39:33.005Z,9.40
2018-06-09T01:42:02.534Z,11.30
2018-06-09T01:44:31.801Z,11.77
2018-06-09T01:47:01.612Z,10.70
2018-06-09T01:49:31.044Z,11.50
2018-06-09T01:52:00.581Z,10.70
2018-06-09T01:54:29.867Z,11.77
2018-06-09T01:56:59.719Z,10.93
2018-06-09T01:59:28.972Z,11.33
2018-06-09T02:01:58.734Z,11.03
2018-06-09T02:04:28.140Z,11.37
2018-06-09T02:06:57.600Z,11.30
2018-06-09T02:09:26.836Z,11.47
2018-06-09T02:11:56.225Z,10.90
2018-06-09T02:14:25.452Z,11.40
2018-06-09T02:16:54.751Z,11.40
2018-06-09T02:19:24.464Z,10.60
2018-06-09T02:21:54.016Z,12.53
2018-06-09T02:24:23.263Z,11.77
2018-06-09T02:26:52.515Z,11.53
2018-06-09T02:29:21.761Z,10.70
2018-06-09T02:31:52.114Z,12.47
2018-06-09T02:34:21.360Z,11.97
2018-06-09T02:36:50.588Z,11.70
2018-06-09T02:39:19.840Z,12.67
2018-06-09T02:41:49.217Z,11.87
2018-06-09T02:44:18.437Z,12.03
2018-06-09T02:46:47.691Z,12.20
2018-06-09T02:49:16.938Z,12.63
2018-06-09T02:51:46.939Z,11.70
2018-06-09T02:54:16.168Z,11.63
2018-06-09T02:56:45.416Z,13.07
2018-06-09T02:59:14.649Z,12.50
2018-06-09T03:01:43.881Z,12.17
2018-06-09T03:04:13.279Z,13.00
2018-06-09T03:06:42.530Z,12.30
2018-06-09T03:09:11.773Z,12.13
2018-06-09T03:11:41.038Z,12.10
2018-06-09T03:14:10.287Z,13.20
2018-06-09T03:16:39.545Z,13.07
2018-06-09T03:19:08.821Z,12.57
2018-06-09T03:21:38.044Z,12.60
2018-06-09T03:24:07.276Z,11.83
2018-06-09T03:26:36.901Z,12.43
2018-06-09T03:29:06.145Z,12.27
2018-06-09T03:31:35.376Z,13.37
2018-06-09T03:34:04.957Z,11.70
2018-06-09T03:36:34.232Z,11.50
2018-06-09T03:39:05.060Z,13.27
2018-06-09T03:41:34.418Z,12.60
2018-06-09T03:44:03.790Z,13.00
2018-06-09T03:46:33.120Z,12.30
2018-06-09T03:49:02.817Z,12.80
2018-06-09T03:51:32.076Z,11.70
2018-06-09T03:54:03.360Z,12.80
2018-06-09T03:56:32.636Z,12.83
2018-06-09T03:59:01.877Z,12.30
2018-06-09T04:01:31.228Z,12.00
2018-06-09T04:04:00.448Z,12.00
2018-06-09T04:06:29.676Z,12.33
2018-06-09T04:08:59.447Z,12.80
2018-06-09T04:11:28.676Z,12.70
2018-06-09T04:13:58.584Z,12.53
2018-06-09T04:16:27.840Z,12.63
2018-06-09T04:18:57.091Z,12.80
2018-06-09T04:21:26.332Z,12.67
2018-06-09T04:23:55.588Z,12.63
2018-06-09T04:26:24.824Z,13.37
2018-06-09T04:28:54.040Z,12.33
2018-06-09T04:31:24.172Z,12.53
2018-06-09T04:33:53.413Z,13.10
2018-06-09T04:36:23.049Z,12.43
2018-06-09T04:38:52.324Z,13.03
2018-06-09T04:41:22.136Z,12.67
2018-06-09T04:43:51.820Z,13.10
2018-06-09T04:46:21.049Z,13.00
2018-06-09T04:48:50.276Z,13.60
2018-06-09T04:51:19.518Z,13.20
2018-06-09T04:53:49.019Z,14.33
2018-06-09T04:56:18.376Z,13.20
2018-06-09T04:58:47.617Z,13.00
2018-06-09T05:01:16.890Z,14.00
2018-06-09T05:03:46.760Z,13.30
2018-06-09T05:06:16.760Z,13.07
2018-06-09T05:08:46.340Z,13.77
2018-06-09T05:11:15.618Z,13.50
2018-06-09T05:13:44.832Z,13.37
2018-06-09T05:16:14.464Z,13.70
2018-06-09T05:18:43.845Z,13.17
2018-06-09T05:21:14.932Z,13.60
2018-06-09T05:23:44.214Z,13.93
2018-06-09T05:26:14.191Z,13.63
2018-06-09T05:28:44.459Z,13.27
2018-06-09T05:31:13.709Z,12.90
2018-06-09T05:33:42.944Z,14.00
2018-06-09T05:36:12.499Z,13.50
2018-06-09T05:38:41.846Z,13.10
2018-06-09T05:41:10.988Z,13.57
2018-06-09T05:43:40.233Z,12.70
2018-06-09T05:46:09.500Z,12.40
2018-06-09T05:48:38.860Z,13.40
2018-06-09T05:51:08.093Z,12.40
2018-06-09T05:53:37.372Z,12.10
2018-06-09T05:56:06.721Z,11.90
2018-06-09T05:58:36.332Z,11.57
2018-06-09T06:01:05.900Z,10.10
2018-06-09T06:03:35.473Z,11.67
2018-06-09T06:06:04.708Z,11.00
2018-06-09T06:08:33.972Z,10.37
2018-06-09T06:11:03.244Z,11.10
2018-06-09T06:13:32.485Z,12.10
2018-06-09T06:16:02.637Z,11.60
2018-06-09T06:18:34.123Z,11.37
2018-06-09T06:21:04.567Z,11.03
2018-06-09T06:23:33.774Z,11.80
2018-06-09T06:26:03.253Z,10.47
2018-06-09T06:28:32.496Z,10.67
2018-06-09T06:31:01.721Z,11.70
2018-06-09T06:33:30.632Z,10.40
2018-06-09T06:36:00.214Z,10.50
2018-06-09T06:38:29.432Z,11.33
2018-06-09T06:40:59.076Z,10.97
2018-06-09T06:43:28.656Z,10.03
2018-06-09T06:45:57.878Z,10.50
2018-06-09T06:48:27.095Z,10.47
2018-06-09T06:50:56.364Z,11.00
2018-06-09T06:53:25.568Z,9.87
2018-06-09T06:55:54.792Z,9.50
2018-06-09T06:58:24.085Z,9.33
2018-06-09T07:00:53.324Z,11.13
2018-06-09T07:03:22.548Z,10.80
2018-06-09T07:05:52.041Z,10.50
2018-06-09T07:08:20.927Z,9.80
2018-06-09T07:10:50.524Z,10.17
2018-06-09T07:13:19.760Z,11.30
2018-06-09T07:15:48.997Z,10.53
2018-06-09T07:18:18.224Z,9.60
2018-06-09T07:20:47.484Z,10.00
2018-06-09T07:23:16.949Z,10.50
2018-06-09T07:25:46.152Z,9.40
2018-06-09T07:28:15.628Z,9.57
2018-06-09T07:30:45.098Z,10.53
2018-06-09T07:33:14.403Z,10.83
2018-06-09T07:35:43.636Z,10.20
2018-06-09T07:38:13.601Z,9.87
2018-06-09T07:40:43.110Z,9.57
2018-06-09T07:43:12.336Z,9.90
2018-06-09T07:45:41.780Z,11.17
2018-06-09T07:48:11.149Z,10.33
2018-06-09T07:50:40.973Z,10.40
2018-06-09T07:53:10.301Z,10.47
2018-06-09T07:55:39.542Z,11.23
2018-06-09T07:58:09.432Z,9.60
2018-06-09T08:00:39.463Z,9.80
2018-06-09T08:03:08.671Z,9.90
2018-06-09T08:05:39.245Z,9.80
2018-06-09T08:08:08.696Z,9.70
2018-06-09T08:10:38.248Z,9.90
2018-06-09T08:13:08.152Z,9.83
2018-06-09T08:15:37.688Z,9.10
2018-06-09T08:18:06.569Z,9.47
2018-06-09T08:20:36.229Z,9.30
2018-06-09T08:23:05.451Z,8.50
2018-06-09T08:25:34.728Z,8.80
2018-06-09T08:28:04.008Z,8.80
2018-06-09T08:30:33.264Z,8.00
2018-06-09T08:33:03.526Z,8.20
2018-06-09T08:35:33.252Z,9.00
2018-06-09T08:38:02.674Z,9.20
2018-06-09T08:40:31.940Z,9.00
2018-06-09T08:43:01.358Z,8.40
2018-06-09T08:45:30.608Z,9.20
2018-06-09T08:48:00.145Z,8.83
2018-06-09T08:50:29.831Z,8.73
2018-06-09T08:52:59.056Z,9.10
2018-06-09T08:55:28.301Z,9.10
2018-06-09T08:58:00.051Z,9.37
2018-06-09T09:00:31.660Z,8.70
2018-06-09T09:03:01.836Z,8.37
2018-06-09T09:05:31.093Z,8.40
2018-06-09T09:08:00.409Z,9.13
2018-06-09T09:10:30.030Z,8.50
2018-06-09T09:12:59.252Z,8.87
2018-06-09T09:15:30.752Z,9.13
2018-06-09T09:18:00.580Z,9.17
2018-06-09T09:20:30.003Z,8.77
2018-06-09T09:22:59.629Z,9.20
2018-06-09T09:25:28.910Z,9.50
2018-06-09T09:27:58.125Z,8.40
2018-06-09T09:30:27.338Z,7.70
2018-06-09T09:32:56.622Z,7.63
2018-06-09T09:35:25.847Z,6.80
2018-06-09T09:37:55.368Z,7.23
2018-06-09T09:40:25.583Z,7.07
2018-06-09T09:42:54.796Z,6.90
2018-06-09T09:45:23.715Z,6.63
2018-06-09T09:47:52.868Z,6.33
2018-06-09T09:50:22.195Z,7.10
2018-06-09T09:52:52.210Z,7.27
2018-06-09T09:55:21.396Z,7.13
2018-06-09T09:57:57.473Z,6.50
2018-06-09T10:00:32.800Z,7.60
2018-06-09T10:03:02.058Z,7.27
2018-06-09T10:05:31.511Z,7.63
2018-06-09T10:08:00.812Z,6.37
2018-06-09T10:10:30.258Z,6.77
2018-06-09T10:12:59.742Z,7.03
2018-06-09T10:15:29.080Z,6.43
2018-06-09T10:17:58.796Z,5.83
2018-06-09T10:20:29.432Z,5.60
2018-06-09T10:22:58.896Z,6.13
2018-06-09T10:25:28.091Z,5.30
2018-06-09T10:27:58.619Z,5.77
2018-06-09T10:30:27.947Z,5.33
2018-06-09T10:32:57.217Z,5.60
2018-06-09T10:35:26.881Z,6.73
2018-06-09T10:37:56.240Z,5.70
2018-06-09T10:40:25.616Z,5.40
2018-06-09T10:42:55.012Z,4.73
2018-06-09T10:45:29.620Z,5.73
2018-06-09T10:47:58.840Z,6.40
2018-06-09T10:50:28.208Z,4.90
2018-06-09T10:52:57.549Z,5.83
2018-06-09T10:55:26.770Z,5.40
2018-06-09T10:57:56.244Z,5.07
2018-06-09T11:00:25.857Z,5.53
2018-06-09T11:02:56.014Z,5.10
2018-06-09T11:05:25.992Z,5.50
2018-06-09T11:07:55.314Z,5.40
2018-06-09T11:10:24.703Z,6.20
2018-06-09T11:12:53.949Z,6.10
2018-06-09T11:15:23.200Z,5.67
2018-06-09T11:17:52.580Z,5.10
2018-06-09T11:20:22.206Z,6.40
2018-06-09T11:22:51.814Z,6.60
2018-06-09T11:25:21.133Z,6.50
2018-06-09T11:27:50.384Z,6.03
2018-06-09T11:30:20.204Z,5.77
2018-06-09T11:32:49.625Z,6.23
2018-06-09T11:35:19.864Z,5.80
2018-06-09T11:37:50.523Z,5.80
2018-06-09T11:40:20.167Z,6.20
2018-06-09T11:42:49.096Z,6.27
2018-06-09T11:45:18.361Z,5.90
2018-06-09T11:47:47.741Z,6.10
2018-06-09T11:50:17.188Z,5.33
2018-06-09T11:52:46.708Z,6.10
2018-06-09T11:55:16.036Z,5.47
2018-06-09T11:57:46.016Z,5.73
2018-06-09T12:00:15.387Z,5.20
2018-06-09T12:02:44.603Z,4.63
2018-06-09T12:05:13.943Z,4.97
2018-06-09T12:07:43.277Z,5.10
2018-06-09T12:10:13.359Z,5.30
2018-06-09T12:12:42.726Z,5.10
2018-06-09T12:15:12.104Z,5.23
2018-06-09T12:17:41.634Z,5.97
2018-06-09T12:20:10.909Z,4.57
2018-06-09T12:22:40.196Z,5.60
2018-06-09T12:25:13.606Z,4.50
2018-06-09T12:27:42.861Z,5.40
2018-06-09T12:30:12.093Z,6.03
2018-06-09T12:32:41.445Z,5.60
2018-06-09T12:35:11.156Z,5.30
2018-06-09T12:37:40.437Z,5.50
2018-06-09T12:40:09.834Z,5.30
2018-06-09T12:42:38.840Z,4.50
2018-06-09T12:45:08.182Z,5.10
2018-06-09T12:47:37.405Z,4.30
2018-06-09T12:50:07.260Z,4.30
2018-06-09T12:52:36.779Z,4.80
2018-06-09T12:55:06.079Z,5.10
2018-06-09T12:57:35.624Z,5.00
2018-06-09T13:00:04.940Z,5.87
2018-06-09T13:02:34.426Z,5.30
2018-06-09T13:05:04.241Z,5.10
2018-06-09T13:07:33.633Z,5.50
2018-06-09T13:10:03.156Z,5.70
2018-06-09T13:12:32.663Z,5.63
2018-06-09T13:15:02.019Z,5.07
2018-06-09T13:17:31.277Z,5.50
2018-06-09T13:20:01.659Z,5.00
2018-06-09T13:22:30.876Z,6.30
2018-06-09T13:25:00.129Z,4.70
2018-06-09T13:27:29.440Z,5.03
2018-06-09T13:29:58.652Z,4.80
2018-06-09T13:32:27.888Z,5.10
2018-06-09T13:34:57.353Z,5.80
2018-06-09T13:37:26.581Z,5.20
2018-06-09T13:39:56.872Z,4.80
2018-06-09T13:42:26.841Z,4.80
2018-06-09T13:44:56.116Z,5.90
2018-06-09T13:47:25.401Z,6.00
2018-06-09T13:49:54.692Z,5.73
2018-06-09T13:52:25.219Z,4.90
2018-06-09T13:54:54.554Z,5.50
2018-06-09T13:57:29.492Z,6.00
2018-06-09T13:59:59.256Z,7.00
2018-06-09T14:02:28.660Z,6.53
2018-06-09T14:04:58.172Z,7.10
2018-06-09T14:07:27.453Z,7.30
2018-06-09T14:09:56.793Z,6.70
2018-06-09T14:12:28.385Z,7.20
2018-06-09T14:14:57.951Z,7.60
2018-06-09T14:17:27.798Z,6.53
2018-06-09T14:19:58.267Z,6.77
2018-06-09T14:22:28.828Z,6.73
2018-06-09T14:24:58.099Z,7.17
2018-06-09T14:27:27.400Z,6.87
2018-06-09T14:29:56.764Z,7.93
2018-06-09T14:32:26.382Z,6.67
2018-06-09T14:34:56.274Z,7.17
2018-06-09T14:37:27.008Z,6.83
2018-06-09T14:39:56.367Z,7.07
2018-06-09T14:42:25.685Z,6.40
2018-06-09T14:44:55.348Z,7.20
2018-06-09T14:47:24.901Z,6.63
2018-06-09T14:49:54.169Z,6.93
2018-06-09T14:52:24.800Z,7.00
2018-06-09T14:54:54.300Z,7.50
2018-06-09T14:57:24.824Z,7.63
2018-06-09T14:59:54.216Z,7.40
2018-06-09T15:02:24.106Z,7.80
2018-06-09T15:04:54.632Z,7.10
2018-06-09T15:07:24.488Z,7.47
2018-06-09T15:09:53.893Z,7.70
2018-06-09T15:12:23.404Z,8.40
2018-06-09T15:14:52.700Z,7.60
2018-06-09T15:17:22.853Z,8.27
2018-06-09T15:19:52.320Z,7.97
2018-06-09T15:22:22.074Z,9.03
2018-06-09T15:24:51.477Z,8.03
2018-06-09T15:27:20.760Z,7.93
2018-06-09T15:29:51.375Z,8.80
2018-06-09T15:32:20.913Z,8.60
2018-06-09T15:34:50.215Z,8.50
2018-06-09T15:37:19.539Z,8.90
2018-06-09T15:39:48.785Z,8.40
2018-06-09T15:42:18.337Z,8.10
2018-06-09T15:44:48.284Z,4.93
2018-06-09T15:47:18.256Z,4.10
2018-06-09T15:49:47.571Z,4.67
2018-06-09T15:52:16.855Z,4.10
2018-06-09T15:54:46.101Z,5.27
2018-06-09T15:57:15.455Z,4.57
2018-06-09T15:59:45.991Z,4.77
2018-06-09T16:02:15.250Z,4.63
2018-06-09T16:04:44.594Z,5.60
2018-06-09T16:07:14.197Z,5.47
2018-06-09T16:09:43.394Z,5.50
2018-06-09T16:12:12.797Z,4.90
2018-06-09T16:14:42.437Z,5.30
2018-06-09T16:17:11.689Z,4.73
2018-06-09T16:19:41.311Z,4.63
2018-06-09T16:22:11.840Z,5.40
2018-06-09T16:24:42.326Z,4.83
2018-06-09T16:27:11.644Z,4.33
2018-06-09T16:29:41.029Z,5.87
2018-06-09T16:32:10.923Z,5.40
2018-06-09T16:34:40.159Z,4.83
2018-06-09T16:37:09.428Z,4.87
2018-06-09T16:39:38.813Z,4.60
2018-06-09T16:42:08.053Z,4.73
2018-06-09T16:44:37.349Z,4.67
2018-06-09T16:47:07.003Z,4.87
2018-06-09T16:49:38.616Z,5.17
2018-06-09T16:52:08.040Z,5.87
2018-06-09T16:54:37.377Z,5.40
2018-06-09T16:57:06.641Z,5.30
2018-06-09T16:59:36.868Z,5.97
2018-06-09T17:02:06.246Z,5.17
2018-06-09T17:04:35.864Z,5.50
2018-06-09T17:07:05.191Z,4.70
2018-06-09T17:09:34.660Z,5.17
2018-06-09T17:12:03.960Z,4.80
2018-06-09T17:14:33.255Z,4.63
2018-06-09T17:17:03.400Z,5.23
2018-06-09T17:19:32.976Z,4.73
2018-06-09T17:22:02.346Z,4.90
2018-06-09T17:24:31.796Z,4.97
2018-06-09T17:27:01.401Z,4.90
2018-06-09T17:29:31.163Z,5.00
2018-06-09T17:32:00.537Z,4.70
2018-06-09T17:34:31.195Z,5.17
2018-06-09T17:37:00.878Z,5.47
2018-06-09T17:39:30.314Z,4.57
2018-06-09T17:42:00.869Z,4.63
2018-06-09T17:44:30.129Z,4.60
2018-06-09T17:47:00.466Z,4.40
2018-06-09T17:49:29.989Z,3.90
2018-06-09T17:51:59.529Z,4.90
2018-06-09T17:54:28.776Z,3.90
2018-06-09T17:56:58.082Z,3.63
2018-06-09T17:59:27.340Z,3.67
2018-06-09T18:01:56.770Z,4.20
2018-06-09T18:04:26.425Z,4.00
2018-06-09T18:06:56.040Z,3.43
2018-06-09T18:09:25.560Z,4.10
2018-06-09T18:11:54.996Z,3.40
2018-06-09T18:14:24.465Z,3.83
2018-06-09T18:16:54.084Z,4.43
2018-06-09T18:19:23.472Z,4.70
2018-06-09T18:21:53.004Z,4.20
2018-06-09T18:24:22.292Z,4.40
2018-06-09T18:26:51.664Z,3.80
2018-06-09T18:29:21.239Z,4.17
2018-06-09T18:31:50.536Z,3.63
2018-06-09T18:34:23.637Z,4.27
2018-06-09T18:36:52.775Z,5.47
2018-06-09T18:39:22.540Z,4.90
2018-06-09T18:41:52.221Z,4.57
2018-06-09T18:44:21.444Z,4.13
2018-06-09T18:46:50.934Z,4.00
2018-06-09T18:49:20.308Z,4.10
2018-06-09T18:51:49.849Z,4.30
2018-06-09T18:54:19.228Z,4.60
2018-06-09T18:56:48.752Z,5.90
2018-06-09T18:59:18.028Z,5.67
2018-06-09T19:01:49.156Z,5.93
2018-06-09T19:04:18.646Z,5.80
2018-06-09T19:06:49.045Z,5.67
2018-06-09T19:09:18.537Z,6.13
2018-06-09T19:11:48.860Z,5.63
2018-06-09T19:14:18.149Z,6.40
2018-06-09T19:16:48.705Z,5.20
2018-06-09T19:19:17.948Z,5.77
2018-06-09T19:21:47.126Z,6.07
2018-06-09T19:24:16.234Z,6.20
2018-06-09T19:26:45.456Z,6.30
2018-06-09T19:29:15.768Z,6.47
2018-06-09T19:31:45.076Z,5.80
2018-06-09T19:34:14.393Z,6.23
2018-06-09T19:36:45.855Z,6.50
2018-06-09T19:39:15.180Z,5.83
2018-06-09T19:41:44.758Z,6.33
2018-06-09T19:44:14.036Z,6.43
2018-06-09T19:46:43.364Z,6.87
2018-06-09T19:49:12.895Z,5.70
2018-06-09T19:51:42.101Z,6.30
2018-06-09T19:54:11.560Z,6.17
2018-06-09T19:56:40.788Z,6.70
2018-06-09T19:59:10.001Z,6.93
2018-06-09T20:01:39.552Z,7.17
2018-06-09T20:04:08.790Z,6.10
2018-06-09T20:06:38.002Z,6.87
2018-06-09T20:09:08.534Z,7.60
2018-06-09T20:11:38.692Z,5.90
2018-06-09T20:14:07.939Z,7.77
2018-06-09T20:16:37.198Z,5.70
2018-06-09T20:19:07.421Z,6.30
2018-06-09T20:21:36.788Z,6.33
2018-06-09T20:24:06.119Z,7.27
2018-06-09T20:26:35.396Z,7.20
2018-06-09T20:29:04.291Z,8.60
2018-06-09T20:31:33.581Z,7.87
2018-06-09T20:34:02.825Z,7.67
2018-06-09T20:36:32.156Z,7.70
2018-06-09T20:39:01.505Z,7.80
2018-06-09T20:41:30.829Z,7.60
2018-06-09T20:44:00.368Z,8.60
2018-06-09T20:46:29.684Z,8.00
2018-06-09T20:48:59.643Z,8.00
2018-06-09T20:51:28.906Z,8.63
2018-06-09T20:53:58.673Z,9.20
2018-06-09T20:56:28.064Z,10.67
2018-06-09T20:58:58.281Z,10.87
2018-06-09T21:01:27.919Z,10.50
2018-06-09T21:03:57.132Z,7.90
2018-06-09T21:06:26.390Z,9.70
2018-06-09T21:08:55.807Z,8.67
2018-06-09T21:11:25.037Z,9.10
2018-06-09T21:13:55.342Z,9.87
2018-06-09T21:16:25.140Z,9.23
2018-06-09T21:18:54.380Z,8.90
2018-06-09T21:21:27.525Z,9.07
2018-06-09T21:23:56.820Z,9.20
2018-06-09T21:26:30.312Z,10.00
2018-06-09T21:29:00.120Z,11.00
2018-06-09T21:31:38.996Z,9.10
2018-06-09T21:34:27.169Z,8.50
2018-06-09T21:36:56.469Z,9.30
2018-06-09T21:39:33.200Z,8.70
2018-06-09T21:42:07.853Z,9.07
2018-06-09T21:44:37.159Z,10.27
2018-06-09T21:47:06.415Z,9.60
2018-06-09T21:49:36.443Z,11.00
2018-06-09T21:52:05.912Z,10.40
2018-06-09T21:54:35.164Z,10.40
2018-06-09T21:57:04.517Z,9.60
2018-06-09T21:59:33.757Z,12.83
2018-06-09T22:02:02.985Z,10.43
2018-06-09T22:04:32.236Z,10.90
2018-06-09T22:07:02.098Z,10.40
2018-06-09T22:09:31.393Z,10.63
2018-06-09T22:12:00.881Z,10.57
2018-06-09T22:14:30.189Z,11.20
2018-06-09T22:16:59.468Z,11.10
2018-06-09T22:19:28.740Z,10.87
2018-06-09T22:21:58.813Z,11.20
2018-06-09T22:24:28.060Z,11.93
2018-06-09T22:26:57.324Z,12.30
2018-06-09T22:29:26.591Z,10.73
2018-06-09T22:31:55.845Z,11.13
2018-06-09T22:34:25.288Z,11.63
2018-06-09T22:36:54.432Z,12.73
2018-06-09T22:39:23.336Z,12.10
2018-06-09T22:41:52.491Z,12.33
2018-06-09T22:44:21.782Z,11.83
2018-06-09T22:46:51.052Z,12.20
2018-06-09T22:49:20.388Z,11.80
2018-06-09T22:51:50.028Z,12.53
2018-06-09T22:54:19.287Z,13.40
2018-06-09T22:56:48.588Z,12.47
2018-06-09T22:59:17.824Z,13.10
2018-06-09T23:01:47.096Z,11.87
2018-06-09T23:04:16.307Z,11.97
2018-06-09T23:06:45.496Z,11.80
2018-06-09T23:09:14.751Z,12.60
2018-06-09T23:11:43.952Z,11.47
2018-06-09T23:14:13.122Z,11.77
2018-06-09T23:16:42.318Z,11.60
2018-06-09T23:19:11.867Z,11.00
2018-06-09T23:21:41.043Z,11.17
2018-06-09T23:24:10.289Z,12.30
2018-06-09T23:26:39.719Z,13.00
2018-06-09T23:29:08.594Z,11.83
2018-06-09T23:31:37.660Z,11.70
2018-06-09T23:34:06.869Z,11.77
2018-06-09T23:36:36.048Z,13.30
2018-06-09T23:39:07.082Z,11.67
2018-06-09T23:41:36.799Z,12.57
2018-06-09T23:44:06.000Z,16.03
2018-06-09T23:46:35.191Z,14.53
2018-06-09T23:49:04.391Z,11.50
2018-06-09T23:51:33.575Z,11.50
2018-06-09T23:54:03.091Z,11.50
2018-06-09T23:56:32.411Z,10.10
2018-06-09T23:59:01.615Z,11.60
